sensor_id;sensor_type;location;lat;lon;timestamp;temperature;humidity
61910;DHT22;47865;52.086;5.410;2022-10-23T00:01:39;10.60;99.90
61910;DHT22;47865;52.086;5.410;2022-10-23T00:04:18;10.60;99.90
61910;DHT22;47865;52.086;5.410;2022-10-23T00:06:46;10.60;99.90
61910;DHT22;47865;52.086;5.410;2022-10-23T00:09:15;10.50;99.90
61910;DHT22;47865;52.086;5.410;2022-10-23T00:11:43;10.50;99.90
61910;DHT22;47865;52.086;5.410;2022-10-23T00:14:13;10.40;99.90
61910;DHT22;47865;52.086;5.410;2022-10-23T00:16:41;10.40;99.90
61910;DHT22;47865;52.086;5.410;2022-10-23T00:19:07;10.40;99.90
61910;DHT22;47865;52.086;5.410;2022-10-23T00:21:34;10.40;99.90
61910;DHT22;47865;52.086;5.410;2022-10-23T00:24:01;10.40;99.90
61910;DHT22;47865;52.086;5.410;2022-10-23T00:26:28;10.40;99.90
61910;DHT22;47865;52.086;5.410;2022-10-23T00:28:55;10.30;99.90
61910;DHT22;47865;52.086;5.410;2022-10-23T00:31:22;10.30;99.90
61910;DHT22;47865;52.086;5.410;2022-10-23T00:33:49;10.30;99.90
61910;DHT22;47865;52.086;5.410;2022-10-23T00:36:18;10.30;99.90
61910;DHT22;47865;52.086;5.410;2022-10-23T00:38:45;10.30;99.90
61910;DHT22;47865;52.086;5.410;2022-10-23T00:41:16;10.20;99.90
61910;DHT22;47865;52.086;5.410;2022-10-23T00:44:09;10.30;99.90
61910;DHT22;47865;52.086;5.410;2022-10-23T00:46:37;10.20;99.90
61910;DHT22;47865;52.086;5.410;2022-10-23T00:49:05;10.20;99.90
61910;DHT22;47865;52.086;5.410;2022-10-23T00:51:42;10.20;99.90
61910;DHT22;47865;52.086;5.410;2022-10-23T00:54:11;10.20;99.90
61910;DHT22;47865;52.086;5.410;2022-10-23T00:57:01;10.20;99.90
61910;DHT22;47865;52.086;5.410;2022-10-23T00:59:30;10.30;99.90
61910;DHT22;47865;52.086;5.410;2022-10-23T01:01:57;10.20;99.90
61910;DHT22;47865;52.086;5.410;2022-10-23T01:04:26;10.20;99.90
61910;DHT22;47865;52.086;5.410;2022-10-23T01:17:45;10.10;99.90
61910;DHT22;47865;52.086;5.410;2022-10-23T01:20:49;10.00;99.90
61910;DHT22;47865;52.086;5.410;2022-10-23T01:23:41;10.00;99.90
61910;DHT22;47865;52.086;5.410;2022-10-23T01:26:15;10.00;99.90
61910;DHT22;47865;52.086;5.410;2022-10-23T01:32:01;9.90;99.90
61910;DHT22;47865;52.086;5.410;2022-10-23T01:34:38;9.90;99.90
61910;DHT22;47865;52.086;5.410;2022-10-23T01:37:11;10.00;99.90
61910;DHT22;47865;52.086;5.410;2022-10-23T01:39:44;9.90;99.90
61910;DHT22;47865;52.086;5.410;2022-10-23T01:42:18;9.90;99.90
61910;DHT22;47865;52.086;5.410;2022-10-23T01:44:59;9.90;99.90
61910;DHT22;47865;52.086;5.410;2022-10-23T01:47:37;9.80;99.90
61910;DHT22;47865;52.086;5.410;2022-10-23T01:50:08;9.90;99.90
61910;DHT22;47865;52.086;5.410;2022-10-23T01:52:39;9.80;99.90
61910;DHT22;47865;52.086;5.410;2022-10-23T01:55:09;9.90;99.90
61910;DHT22;47865;52.086;5.410;2022-10-23T01:57:39;9.80;99.90
61910;DHT22;47865;52.086;5.410;2022-10-23T02:00:13;9.70;99.90
61910;DHT22;47865;52.086;5.410;2022-10-23T02:03:07;9.70;99.90
61910;DHT22;47865;52.086;5.410;2022-10-23T02:05:34;9.70;99.90
61910;DHT22;47865;52.086;5.410;2022-10-23T02:08:03;9.70;99.90
61910;DHT22;47865;52.086;5.410;2022-10-23T02:10:48;9.70;99.90
61910;DHT22;47865;52.086;5.410;2022-10-23T02:13:38;9.70;99.90
61910;DHT22;47865;52.086;5.410;2022-10-23T02:16:38;9.70;99.90
61910;DHT22;47865;52.086;5.410;2022-10-23T02:19:32;9.70;99.90
61910;DHT22;47865;52.086;5.410;2022-10-23T02:22:34;9.70;99.90
61910;DHT22;47865;52.086;5.410;2022-10-23T02:25:17;9.60;99.90
61910;DHT22;47865;52.086;5.410;2022-10-23T02:27:51;9.50;99.90
61910;DHT22;47865;52.086;5.410;2022-10-23T02:30:22;9.60;99.90
61910;DHT22;47865;52.086;5.410;2022-10-23T02:33:06;9.50;99.90
61910;DHT22;47865;52.086;5.410;2022-10-23T02:35:33;9.50;99.90
61910;DHT22;47865;52.086;5.410;2022-10-23T02:38:49;9.60;99.90
61910;DHT22;47865;52.086;5.410;2022-10-23T02:55:50;9.60;99.90
61910;DHT22;47865;52.086;5.410;2022-10-23T02:58:27;9.50;99.90
61910;DHT22;47865;52.086;5.410;2022-10-23T03:01:01;9.50;99.90
61910;DHT22;47865;52.086;5.410;2022-10-23T03:03:32;9.50;99.90
61910;DHT22;47865;52.086;5.410;2022-10-23T03:06:00;9.50;99.90
61910;DHT22;47865;52.086;5.410;2022-10-23T03:08:28;9.50;99.90
61910;DHT22;47865;52.086;5.410;2022-10-23T03:10:54;9.50;99.90
61910;DHT22;47865;52.086;5.410;2022-10-23T03:13:22;9.50;99.90
61910;DHT22;47865;52.086;5.410;2022-10-23T03:15:49;9.40;99.90
61910;DHT22;47865;52.086;5.410;2022-10-23T03:18:16;9.40;99.90
61910;DHT22;47865;52.086;5.410;2022-10-23T03:20:49;9.50;99.90
61910;DHT22;47865;52.086;5.410;2022-10-23T03:23:15;9.40;99.90
61910;DHT22;47865;52.086;5.410;2022-10-23T03:25:42;9.40;99.90
61910;DHT22;47865;52.086;5.410;2022-10-23T03:28:19;9.50;99.90
61910;DHT22;47865;52.086;5.410;2022-10-23T03:30:46;9.50;99.90
61910;DHT22;47865;52.086;5.410;2022-10-23T03:33:13;9.50;99.90
61910;DHT22;47865;52.086;5.410;2022-10-23T03:35:39;9.50;99.90
61910;DHT22;47865;52.086;5.410;2022-10-23T03:38:06;9.50;99.90
61910;DHT22;47865;52.086;5.410;2022-10-23T03:40:33;9.60;99.90
61910;DHT22;47865;52.086;5.410;2022-10-23T03:43:00;9.70;99.90
61910;DHT22;47865;52.086;5.410;2022-10-23T03:45:28;9.70;99.90
61910;DHT22;47865;52.086;5.410;2022-10-23T03:47:56;9.70;99.90
61910;DHT22;47865;52.086;5.410;2022-10-23T03:50:23;9.70;99.90
61910;DHT22;47865;52.086;5.410;2022-10-23T03:52:49;9.70;99.90
61910;DHT22;47865;52.086;5.410;2022-10-23T03:55:16;9.70;99.90
61910;DHT22;47865;52.086;5.410;2022-10-23T03:57:43;9.70;99.90
61910;DHT22;47865;52.086;5.410;2022-10-23T04:00:10;9.50;99.90
61910;DHT22;47865;52.086;5.410;2022-10-23T04:02:42;9.50;99.90
61910;DHT22;47865;52.086;5.410;2022-10-23T04:05:10;9.50;99.90
61910;DHT22;47865;52.086;5.410;2022-10-23T04:07:39;9.50;99.90
61910;DHT22;47865;52.086;5.410;2022-10-23T04:10:06;9.50;99.90
61910;DHT22;47865;52.086;5.410;2022-10-23T04:12:33;9.40;99.90
61910;DHT22;47865;52.086;5.410;2022-10-23T04:15:00;9.50;99.90
61910;DHT22;47865;52.086;5.410;2022-10-23T04:17:27;9.50;99.90
61910;DHT22;47865;52.086;5.410;2022-10-23T04:19:58;9.60;99.90
61910;DHT22;47865;52.086;5.410;2022-10-23T04:22:26;9.60;99.90
61910;DHT22;47865;52.086;5.410;2022-10-23T04:24:54;9.70;99.90
61910;DHT22;47865;52.086;5.410;2022-10-23T04:27:21;9.70;99.90
61910;DHT22;47865;52.086;5.410;2022-10-23T04:29:48;9.80;99.90
61910;DHT22;47865;52.086;5.410;2022-10-23T04:32:15;9.80;99.90
61910;DHT22;47865;52.086;5.410;2022-10-23T04:34:43;9.80;99.90
61910;DHT22;47865;52.086;5.410;2022-10-23T04:37:09;9.80;99.90
61910;DHT22;47865;52.086;5.410;2022-10-23T04:39:37;9.80;99.90
61910;DHT22;47865;52.086;5.410;2022-10-23T04:42:03;9.80;99.90
61910;DHT22;47865;52.086;5.410;2022-10-23T04:44:30;9.80;99.90
61910;DHT22;47865;52.086;5.410;2022-10-23T04:46:57;9.70;99.90
61910;DHT22;47865;52.086;5.410;2022-10-23T04:49:24;9.80;99.90
61910;DHT22;47865;52.086;5.410;2022-10-23T04:52:23;9.90;99.90
61910;DHT22;47865;52.086;5.410;2022-10-23T04:55:22;9.90;99.90
61910;DHT22;47865;52.086;5.410;2022-10-23T04:58:05;10.00;99.90
61910;DHT22;47865;52.086;5.410;2022-10-23T05:00:32;10.10;99.90
61910;DHT22;47865;52.086;5.410;2022-10-23T05:02:59;10.10;99.90
61910;DHT22;47865;52.086;5.410;2022-10-23T05:05:33;10.20;99.90
61910;DHT22;47865;52.086;5.410;2022-10-23T05:08:19;10.30;99.90
61910;DHT22;47865;52.086;5.410;2022-10-23T05:11:04;10.50;99.90
61910;DHT22;47865;52.086;5.410;2022-10-23T05:13:37;10.70;99.90
61910;DHT22;47865;52.086;5.410;2022-10-23T05:16:04;10.70;99.90
61910;DHT22;47865;52.086;5.410;2022-10-23T05:18:43;10.60;99.90
61910;DHT22;47865;52.086;5.410;2022-10-23T05:21:14;10.70;99.90
61910;DHT22;47865;52.086;5.410;2022-10-23T05:23:42;10.70;99.90
61910;DHT22;47865;52.086;5.410;2022-10-23T05:26:12;10.90;99.90
61910;DHT22;47865;52.086;5.410;2022-10-23T05:28:43;11.10;99.90
61910;DHT22;47865;52.086;5.410;2022-10-23T05:31:14;11.00;99.90
61910;DHT22;47865;52.086;5.410;2022-10-23T05:33:44;11.10;99.90
61910;DHT22;47865;52.086;5.410;2022-10-23T05:36:11;11.30;99.90
61910;DHT22;47865;52.086;5.410;2022-10-23T05:38:39;11.60;99.90
61910;DHT22;47865;52.086;5.410;2022-10-23T05:41:14;11.60;99.90
61910;DHT22;47865;52.086;5.410;2022-10-23T05:43:41;11.70;99.90
61910;DHT22;47865;52.086;5.410;2022-10-23T05:46:28;11.70;99.90
61910;DHT22;47865;52.086;5.410;2022-10-23T05:49:09;11.80;99.90
61910;DHT22;47865;52.086;5.410;2022-10-23T05:52:11;11.90;99.90
61910;DHT22;47865;52.086;5.410;2022-10-23T05:54:57;11.90;99.90
61910;DHT22;47865;52.086;5.410;2022-10-23T05:57:56;11.90;99.90
61910;DHT22;47865;52.086;5.410;2022-10-23T06:00:46;11.90;99.90
61910;DHT22;47865;52.086;5.410;2022-10-23T06:03:32;11.90;99.90
61910;DHT22;47865;52.086;5.410;2022-10-23T06:06:00;11.90;99.90
61910;DHT22;47865;52.086;5.410;2022-10-23T06:08:38;12.00;99.90
61910;DHT22;47865;52.086;5.410;2022-10-23T06:11:09;12.00;99.90
61910;DHT22;47865;52.086;5.410;2022-10-23T06:13:37;12.00;99.90
61910;DHT22;47865;52.086;5.410;2022-10-23T06:16:12;12.00;99.90
61910;DHT22;47865;52.086;5.410;2022-10-23T06:18:40;12.00;99.90
61910;DHT22;47865;52.086;5.410;2022-10-23T06:21:12;12.00;99.90
61910;DHT22;47865;52.086;5.410;2022-10-23T06:23:41;12.00;99.90
61910;DHT22;47865;52.086;5.410;2022-10-23T06:26:28;12.00;99.90
61910;DHT22;47865;52.086;5.410;2022-10-23T06:29:21;12.00;99.90
61910;DHT22;47865;52.086;5.410;2022-10-23T06:31:49;12.00;99.90
61910;DHT22;47865;52.086;5.410;2022-10-23T06:34:16;12.00;99.90
61910;DHT22;47865;52.086;5.410;2022-10-23T06:36:45;12.00;99.90
61910;DHT22;47865;52.086;5.410;2022-10-23T06:39:29;12.00;99.90
61910;DHT22;47865;52.086;5.410;2022-10-23T06:42:13;12.00;99.90
61910;DHT22;47865;52.086;5.410;2022-10-23T06:44:55;12.00;99.90
61910;DHT22;47865;52.086;5.410;2022-10-23T06:47:45;12.00;99.90
61910;DHT22;47865;52.086;5.410;2022-10-23T06:50:32;12.00;99.90
61910;DHT22;47865;52.086;5.410;2022-10-23T06:53:04;12.10;99.90
61910;DHT22;47865;52.086;5.410;2022-10-23T06:55:33;12.10;99.90
61910;DHT22;47865;52.086;5.410;2022-10-23T06:58:01;12.10;99.90
61910;DHT22;47865;52.086;5.410;2022-10-23T07:00:28;12.20;99.90
61910;DHT22;47865;52.086;5.410;2022-10-23T07:02:55;12.20;99.90
61910;DHT22;47865;52.086;5.410;2022-10-23T07:05:22;12.20;99.90
61910;DHT22;47865;52.086;5.410;2022-10-23T07:07:48;12.20;99.90
61910;DHT22;47865;52.086;5.410;2022-10-23T07:10:22;12.20;99.90
61910;DHT22;47865;52.086;5.410;2022-10-23T07:12:57;12.30;99.90
61910;DHT22;47865;52.086;5.410;2022-10-23T07:15:38;12.30;99.90
61910;DHT22;47865;52.086;5.410;2022-10-23T07:18:08;12.40;99.90
61910;DHT22;47865;52.086;5.410;2022-10-23T07:21:00;12.40;99.90
61910;DHT22;47865;52.086;5.410;2022-10-23T07:23:29;12.40;99.90
61910;DHT22;47865;52.086;5.410;2022-10-23T07:26:05;12.50;99.90
61910;DHT22;47865;52.086;5.410;2022-10-23T07:28:33;12.60;99.90
61910;DHT22;47865;52.086;5.410;2022-10-23T07:31:00;12.60;99.90
61910;DHT22;47865;52.086;5.410;2022-10-23T07:33:47;12.70;99.90
61910;DHT22;47865;52.086;5.410;2022-10-23T07:36:17;12.80;99.90
61910;DHT22;47865;52.086;5.410;2022-10-23T07:38:44;12.80;99.90
61910;DHT22;47865;52.086;5.410;2022-10-23T07:41:11;12.90;99.90
61910;DHT22;47865;52.086;5.410;2022-10-23T07:43:38;13.00;99.90
61910;DHT22;47865;52.086;5.410;2022-10-23T07:46:06;13.00;99.90
61910;DHT22;47865;52.086;5.410;2022-10-23T07:48:38;13.00;99.90
61910;DHT22;47865;52.086;5.410;2022-10-23T07:51:10;13.10;99.90
61910;DHT22;47865;52.086;5.410;2022-10-23T07:53:42;13.10;99.90
61910;DHT22;47865;52.086;5.410;2022-10-23T07:56:27;13.20;99.90
61910;DHT22;47865;52.086;5.410;2022-10-23T07:59:15;13.20;99.90
61910;DHT22;47865;52.086;5.410;2022-10-23T08:01:48;13.20;99.90
61910;DHT22;47865;52.086;5.410;2022-10-23T08:04:20;13.30;99.90
61910;DHT22;47865;52.086;5.410;2022-10-23T08:07:19;13.30;99.90
61910;DHT22;47865;52.086;5.410;2022-10-23T08:09:47;13.50;99.90
61910;DHT22;47865;52.086;5.410;2022-10-23T08:12:14;13.40;99.90
61910;DHT22;47865;52.086;5.410;2022-10-23T08:14:42;13.50;99.90
61910;DHT22;47865;52.086;5.410;2022-10-23T08:17:10;13.60;99.90
61910;DHT22;47865;52.086;5.410;2022-10-23T08:20:09;13.60;99.90
61910;DHT22;47865;52.086;5.410;2022-10-23T08:22:41;13.70;99.90
61910;DHT22;47865;52.086;5.410;2022-10-23T08:25:09;13.70;99.90
61910;DHT22;47865;52.086;5.410;2022-10-23T08:27:36;13.70;99.90
61910;DHT22;47865;52.086;5.410;2022-10-23T08:30:04;13.80;99.90
61910;DHT22;47865;52.086;5.410;2022-10-23T08:32:31;13.80;99.90
61910;DHT22;47865;52.086;5.410;2022-10-23T08:35:00;13.80;99.90
61910;DHT22;47865;52.086;5.410;2022-10-23T08:37:29;13.90;99.90
61910;DHT22;47865;52.086;5.410;2022-10-23T08:39:56;13.90;99.90
61910;DHT22;47865;52.086;5.410;2022-10-23T08:42:43;14.00;99.90
61910;DHT22;47865;52.086;5.410;2022-10-23T08:45:29;14.00;99.90
61910;DHT22;47865;52.086;5.410;2022-10-23T08:48:27;14.10;99.90
61910;DHT22;47865;52.086;5.410;2022-10-23T08:51:25;14.10;99.90
61910;DHT22;47865;52.086;5.410;2022-10-23T08:54:14;14.20;99.90
61910;DHT22;47865;52.086;5.410;2022-10-23T08:56:47;14.20;99.90
61910;DHT22;47865;52.086;5.410;2022-10-23T08:59:21;14.30;99.90
61910;DHT22;47865;52.086;5.410;2022-10-23T09:04:38;14.50;99.90
61910;DHT22;47865;52.086;5.410;2022-10-23T09:07:15;14.60;99.90
61910;DHT22;47865;52.086;5.410;2022-10-23T09:10:03;14.60;99.90
61910;DHT22;47865;52.086;5.410;2022-10-23T09:12:33;14.60;99.90
61910;DHT22;47865;52.086;5.410;2022-10-23T09:17:59;14.80;99.90
61910;DHT22;47865;52.086;5.410;2022-10-23T09:20:31;14.80;99.90
61910;DHT22;47865;52.086;5.410;2022-10-23T09:23:22;14.80;99.90
61910;DHT22;47865;52.086;5.410;2022-10-23T09:25:51;14.80;99.90
61910;DHT22;47865;52.086;5.410;2022-10-23T09:28:25;14.80;99.90
61910;DHT22;47865;52.086;5.410;2022-10-23T09:30:52;14.80;99.90
61910;DHT22;47865;52.086;5.410;2022-10-23T09:33:26;14.80;99.90
61910;DHT22;47865;52.086;5.410;2022-10-23T09:35:57;14.90;99.90
61910;DHT22;47865;52.086;5.410;2022-10-23T09:38:29;14.80;99.90
61910;DHT22;47865;52.086;5.410;2022-10-23T09:43:43;14.80;99.90
61910;DHT22;47865;52.086;5.410;2022-10-23T09:46:12;14.80;99.90
61910;DHT22;47865;52.086;5.410;2022-10-23T09:48:39;14.80;99.90
61910;DHT22;47865;52.086;5.410;2022-10-23T09:51:18;14.80;99.90
61910;DHT22;47865;52.086;5.410;2022-10-23T09:53:55;14.80;99.90
61910;DHT22;47865;52.086;5.410;2022-10-23T09:56:30;14.90;99.90
61910;DHT22;47865;52.086;5.410;2022-10-23T10:01:30;15.00;99.90
61910;DHT22;47865;52.086;5.410;2022-10-23T10:04:18;15.00;99.90
61910;DHT22;47865;52.086;5.410;2022-10-23T10:06:56;15.10;99.90
61910;DHT22;47865;52.086;5.410;2022-10-23T10:09:24;15.10;99.90
61910;DHT22;47865;52.086;5.410;2022-10-23T10:11:55;15.20;99.90
61910;DHT22;47865;52.086;5.410;2022-10-23T10:17:36;15.30;99.90
61910;DHT22;47865;52.086;5.410;2022-10-23T10:22:54;15.30;99.90
61910;DHT22;47865;52.086;5.410;2022-10-23T10:25:32;15.40;99.90
61910;DHT22;47865;52.086;5.410;2022-10-23T10:28:16;15.40;99.90
61910;DHT22;47865;52.086;5.410;2022-10-23T10:33:35;15.50;99.90
61910;DHT22;47865;52.086;5.410;2022-10-23T10:49:23;15.80;99.90
61910;DHT22;47865;52.086;5.410;2022-10-23T10:55:31;15.90;99.90
61910;DHT22;47865;52.086;5.410;2022-10-23T10:58:04;15.80;99.90
61910;DHT22;47865;52.086;5.410;2022-10-23T11:00:33;16.00;99.90
61910;DHT22;47865;52.086;5.410;2022-10-23T11:03:29;16.00;99.90
61910;DHT22;47865;52.086;5.410;2022-10-23T11:06:12;16.00;99.90
61910;DHT22;47865;52.086;5.410;2022-10-23T11:08:41;16.20;99.90
61910;DHT22;47865;52.086;5.410;2022-10-23T11:11:27;16.20;99.90
61910;DHT22;47865;52.086;5.410;2022-10-23T11:13:57;16.20;99.90
61910;DHT22;47865;52.086;5.410;2022-10-23T11:16:33;16.30;99.90
61910;DHT22;47865;52.086;5.410;2022-10-23T11:19:26;16.40;99.90
61910;DHT22;47865;52.086;5.410;2022-10-23T11:22:02;16.40;99.90
61910;DHT22;47865;52.086;5.410;2022-10-23T11:24:59;16.40;99.90
61910;DHT22;47865;52.086;5.410;2022-10-23T11:30:24;16.60;99.90
61910;DHT22;47865;52.086;5.410;2022-10-23T11:33:20;16.70;99.90
61910;DHT22;47865;52.086;5.410;2022-10-23T11:36:11;16.80;99.90
61910;DHT22;47865;52.086;5.410;2022-10-23T11:38:43;16.90;99.90
61910;DHT22;47865;52.086;5.410;2022-10-23T11:41:27;17.20;99.90
61910;DHT22;47865;52.086;5.410;2022-10-23T11:44:00;17.30;99.90
61910;DHT22;47865;52.086;5.410;2022-10-23T11:46:32;17.40;99.90
61910;DHT22;47865;52.086;5.410;2022-10-23T11:48:59;17.50;99.90
61910;DHT22;47865;52.086;5.410;2022-10-23T11:54:27;17.70;99.90
61910;DHT22;47865;52.086;5.410;2022-10-23T11:59:54;17.70;99.90
61910;DHT22;47865;52.086;5.410;2022-10-23T12:02:39;17.80;99.90
61910;DHT22;47865;52.086;5.410;2022-10-23T12:05:26;17.90;99.90
61910;DHT22;47865;52.086;5.410;2022-10-23T12:07:57;18.00;99.90
61910;DHT22;47865;52.086;5.410;2022-10-23T12:10:42;18.00;99.90
61910;DHT22;47865;52.086;5.410;2022-10-23T12:16:06;18.00;99.90
61910;DHT22;47865;52.086;5.410;2022-10-23T12:18:44;18.00;99.90
61910;DHT22;47865;52.086;5.410;2022-10-23T12:21:21;18.00;99.90
61910;DHT22;47865;52.086;5.410;2022-10-23T12:29:25;18.00;99.90
61910;DHT22;47865;52.086;5.410;2022-10-23T12:38:18;18.10;99.90
61910;DHT22;47865;52.086;5.410;2022-10-23T12:40:51;18.10;99.90
61910;DHT22;47865;52.086;5.410;2022-10-23T12:43:33;18.10;99.90
61910;DHT22;47865;52.086;5.410;2022-10-23T12:48:47;18.30;99.90
61910;DHT22;47865;52.086;5.410;2022-10-23T12:51:35;18.30;99.90
61910;DHT22;47865;52.086;5.410;2022-10-23T12:54:02;18.40;99.90
61910;DHT22;47865;52.086;5.410;2022-10-23T12:56:35;18.40;99.90
61910;DHT22;47865;52.086;5.410;2022-10-23T12:59:09;18.50;99.90
61910;DHT22;47865;52.086;5.410;2022-10-23T13:01:38;18.40;99.90
61910;DHT22;47865;52.086;5.410;2022-10-23T13:04:28;18.40;99.90
61910;DHT22;47865;52.086;5.410;2022-10-23T13:06:58;18.50;99.90
61910;DHT22;47865;52.086;5.410;2022-10-23T13:09:38;18.50;99.90
61910;DHT22;47865;52.086;5.410;2022-10-23T13:12:24;18.50;99.90
61910;DHT22;47865;52.086;5.410;2022-10-23T13:14:55;18.50;99.90
61910;DHT22;47865;52.086;5.410;2022-10-23T13:17:37;18.60;99.90
61910;DHT22;47865;52.086;5.410;2022-10-23T13:22:44;18.50;99.90
61910;DHT22;47865;52.086;5.410;2022-10-23T13:25:29;18.50;99.90
61910;DHT22;47865;52.086;5.410;2022-10-23T13:28:19;18.60;99.90
61910;DHT22;47865;52.086;5.410;2022-10-23T13:30:59;18.60;99.90
61910;DHT22;47865;52.086;5.410;2022-10-23T13:33:32;18.50;99.90
61910;DHT22;47865;52.086;5.410;2022-10-23T13:38:41;18.60;99.90
61910;DHT22;47865;52.086;5.410;2022-10-23T13:41:14;18.60;99.90
61910;DHT22;47865;52.086;5.410;2022-10-23T13:43:42;18.60;99.90
61910;DHT22;47865;52.086;5.410;2022-10-23T13:46:14;18.70;99.90
61910;DHT22;47865;52.086;5.410;2022-10-23T13:48:41;18.70;99.90
61910;DHT22;47865;52.086;5.410;2022-10-23T13:51:12;18.70;99.90
61910;DHT22;47865;52.086;5.410;2022-10-23T13:53:39;18.70;99.90
61910;DHT22;47865;52.086;5.410;2022-10-23T13:56:08;18.70;99.90
61910;DHT22;47865;52.086;5.410;2022-10-23T13:58:35;18.60;99.90
61910;DHT22;47865;52.086;5.410;2022-10-23T14:01:02;18.60;99.90
61910;DHT22;47865;52.086;5.410;2022-10-23T14:03:29;18.60;99.90
61910;DHT22;47865;52.086;5.410;2022-10-23T14:05:56;18.60;99.90
61910;DHT22;47865;52.086;5.410;2022-10-23T14:08:22;18.60;99.90
61910;DHT22;47865;52.086;5.410;2022-10-23T14:10:49;18.60;99.90
61910;DHT22;47865;52.086;5.410;2022-10-23T14:13:16;18.50;99.90
61910;DHT22;47865;52.086;5.410;2022-10-23T14:15:43;18.60;99.90
61910;DHT22;47865;52.086;5.410;2022-10-23T14:18:09;18.60;99.90
61910;DHT22;47865;52.086;5.410;2022-10-23T14:20:37;18.60;99.90
61910;DHT22;47865;52.086;5.410;2022-10-23T14:23:04;18.60;99.90
61910;DHT22;47865;52.086;5.410;2022-10-23T14:25:31;18.70;99.90
61910;DHT22;47865;52.086;5.410;2022-10-23T14:27:58;18.70;99.90
61910;DHT22;47865;52.086;5.410;2022-10-23T14:30:24;18.80;99.90
61910;DHT22;47865;52.086;5.410;2022-10-23T14:32:51;18.90;99.90
61910;DHT22;47865;52.086;5.410;2022-10-23T14:35:18;19.00;99.90
61910;DHT22;47865;52.086;5.410;2022-10-23T14:37:45;19.00;99.90
61910;DHT22;47865;52.086;5.410;2022-10-23T14:40:12;18.90;99.90
61910;DHT22;47865;52.086;5.410;2022-10-23T14:42:39;18.80;99.90
61910;DHT22;47865;52.086;5.410;2022-10-23T14:45:06;18.70;99.90
61910;DHT22;47865;52.086;5.410;2022-10-23T14:47:33;18.60;99.90
61910;DHT22;47865;52.086;5.410;2022-10-23T14:50:00;18.60;99.90
61910;DHT22;47865;52.086;5.410;2022-10-23T14:52:27;18.50;99.90
61910;DHT22;47865;52.086;5.410;2022-10-23T14:54:54;18.50;99.90
61910;DHT22;47865;52.086;5.410;2022-10-23T14:57:21;18.40;99.90
61910;DHT22;47865;52.086;5.410;2022-10-23T14:59:48;18.40;99.90
61910;DHT22;47865;52.086;5.410;2022-10-23T15:02:15;18.40;99.90
61910;DHT22;47865;52.086;5.410;2022-10-23T15:04:42;18.40;99.90
61910;DHT22;47865;52.086;5.410;2022-10-23T15:07:09;18.30;99.90
61910;DHT22;47865;52.086;5.410;2022-10-23T15:09:36;18.30;99.90
61910;DHT22;47865;52.086;5.410;2022-10-23T15:12:05;18.30;99.90
61910;DHT22;47865;52.086;5.410;2022-10-23T15:14:33;18.20;99.90
61910;DHT22;47865;52.086;5.410;2022-10-23T15:17:00;18.10;99.90
61910;DHT22;47865;52.086;5.410;2022-10-23T15:19:27;18.00;99.90
61910;DHT22;47865;52.086;5.410;2022-10-23T15:21:53;18.00;99.90
61910;DHT22;47865;52.086;5.410;2022-10-23T15:24:20;17.90;99.90
61910;DHT22;47865;52.086;5.410;2022-10-23T15:26:47;17.90;99.90
61910;DHT22;47865;52.086;5.410;2022-10-23T15:29:15;17.90;99.90
61910;DHT22;47865;52.086;5.410;2022-10-23T15:31:45;17.90;99.90
61910;DHT22;47865;52.086;5.410;2022-10-23T15:34:15;17.80;99.90
61910;DHT22;47865;52.086;5.410;2022-10-23T15:36:43;17.80;99.90
61910;DHT22;47865;52.086;5.410;2022-10-23T15:39:11;17.70;99.90
61910;DHT22;47865;52.086;5.410;2022-10-23T15:41:39;17.70;99.90
61910;DHT22;47865;52.086;5.410;2022-10-23T15:44:08;17.70;99.90
61910;DHT22;47865;52.086;5.410;2022-10-23T15:46:36;17.70;99.90
61910;DHT22;47865;52.086;5.410;2022-10-23T15:49:03;17.70;99.90
61910;DHT22;47865;52.086;5.410;2022-10-23T15:51:30;17.70;99.90
61910;DHT22;47865;52.086;5.410;2022-10-23T15:54:02;17.70;99.90
61910;DHT22;47865;52.086;5.410;2022-10-23T15:56:29;17.70;99.90
61910;DHT22;47865;52.086;5.410;2022-10-23T15:58:56;17.70;99.90
61910;DHT22;47865;52.086;5.410;2022-10-23T16:01:23;17.70;99.90
61910;DHT22;47865;52.086;5.410;2022-10-23T16:03:50;17.60;99.90
61910;DHT22;47865;52.086;5.410;2022-10-23T16:06:18;17.60;99.90
61910;DHT22;47865;52.086;5.410;2022-10-23T16:08:45;17.70;99.90
61910;DHT22;47865;52.086;5.410;2022-10-23T16:11:22;17.60;99.90
61910;DHT22;47865;52.086;5.410;2022-10-23T16:13:49;17.60;99.90
61910;DHT22;47865;52.086;5.410;2022-10-23T16:16:17;17.50;99.90
61910;DHT22;47865;52.086;5.410;2022-10-23T16:18:44;17.50;99.90
61910;DHT22;47865;52.086;5.410;2022-10-23T16:21:26;17.50;99.90
61910;DHT22;47865;52.086;5.410;2022-10-23T16:23:55;17.50;99.90
61910;DHT22;47865;52.086;5.410;2022-10-23T16:26:22;17.40;99.90
61910;DHT22;47865;52.086;5.410;2022-10-23T16:28:53;17.50;99.90
61910;DHT22;47865;52.086;5.410;2022-10-23T16:31:21;17.50;99.90
61910;DHT22;47865;52.086;5.410;2022-10-23T16:33:49;17.50;99.90
61910;DHT22;47865;52.086;5.410;2022-10-23T16:36:17;17.40;99.90
61910;DHT22;47865;52.086;5.410;2022-10-23T16:39:03;17.40;99.90
61910;DHT22;47865;52.086;5.410;2022-10-23T16:41:49;17.30;99.90
61910;DHT22;47865;52.086;5.410;2022-10-23T16:44:16;17.30;99.90
61910;DHT22;47865;52.086;5.410;2022-10-23T16:46:54;17.30;99.90
61910;DHT22;47865;52.086;5.410;2022-10-23T16:49:21;17.30;99.90
61910;DHT22;47865;52.086;5.410;2022-10-23T16:51:48;17.20;99.90
61910;DHT22;47865;52.086;5.410;2022-10-23T16:54:16;17.20;99.90
61910;DHT22;47865;52.086;5.410;2022-10-23T16:56:43;17.10;99.90
61910;DHT22;47865;52.086;5.410;2022-10-23T16:59:10;17.00;99.90
61910;DHT22;47865;52.086;5.410;2022-10-23T17:01:37;17.00;99.90
61910;DHT22;47865;52.086;5.410;2022-10-23T17:04:05;17.00;99.90
61910;DHT22;47865;52.086;5.410;2022-10-23T17:06:32;16.90;99.90
61910;DHT22;47865;52.086;5.410;2022-10-23T17:09:00;16.90;99.90
61910;DHT22;47865;52.086;5.410;2022-10-23T17:11:32;17.00;99.90
61910;DHT22;47865;52.086;5.410;2022-10-23T17:14:02;17.00;99.90
61910;DHT22;47865;52.086;5.410;2022-10-23T17:16:35;17.00;99.90
61910;DHT22;47865;52.086;5.410;2022-10-23T17:19:05;17.10;99.90
61910;DHT22;47865;52.086;5.410;2022-10-23T17:21:53;17.00;99.90
61910;DHT22;47865;52.086;5.410;2022-10-23T17:24:21;16.90;99.90
61910;DHT22;47865;52.086;5.410;2022-10-23T17:26:48;16.90;99.90
61910;DHT22;47865;52.086;5.410;2022-10-23T17:29:15;16.90;99.90
61910;DHT22;47865;52.086;5.410;2022-10-23T17:31:47;16.80;99.90
61910;DHT22;47865;52.086;5.410;2022-10-23T17:34:15;16.90;99.90
61910;DHT22;47865;52.086;5.410;2022-10-23T17:36:45;16.80;99.90
61910;DHT22;47865;52.086;5.410;2022-10-23T17:39:14;16.90;99.90
61910;DHT22;47865;52.086;5.410;2022-10-23T17:41:42;16.90;99.90
61910;DHT22;47865;52.086;5.410;2022-10-23T17:44:09;16.90;99.90
61910;DHT22;47865;52.086;5.410;2022-10-23T17:46:36;17.00;99.90
61910;DHT22;47865;52.086;5.410;2022-10-23T17:49:03;16.90;99.90